createdAt,value
2019-03-25T00:01:05.507Z,29.93
2019-03-25T00:03:34.224Z,30.00
2019-03-25T00:06:02.941Z,34.27
2019-03-25T00:08:31.682Z,28.73
2019-03-25T00:11:00.384Z,29.27
2019-03-25T00:13:29.085Z,27.33
2019-03-25T00:15:57.854Z,29.77
2019-03-25T00:18:26.559Z,24.70
2019-03-25T00:20:55.265Z,22.93
2019-03-25T00:23:24.015Z,24.40
2019-03-25T00:25:52.722Z,22.87
2019-03-25T00:28:21.428Z,24.40
2019-03-25T00:30:53.039Z,21.20
2019-03-25T00:33:21.749Z,25.27
2019-03-25T00:35:50.459Z,22.10
2019-03-25T00:38:19.225Z,19.63
2019-03-25T00:40:47.934Z,21.17
2019-03-25T00:43:16.638Z,22.33
2019-03-25T00:45:52.917Z,21.57
2019-03-25T00:48:21.625Z,24.57
2019-03-25T00:50:56.617Z,22.97
2019-03-25T00:53:25.324Z,28.70
2019-03-25T00:55:54.028Z,23.90
2019-03-25T00:58:22.777Z,25.83
2019-03-25T01:00:51.481Z,23.93
2019-03-25T01:03:20.192Z,24.43
2019-03-25T01:05:52.475Z,20.23
2019-03-25T01:08:21.199Z,20.57
2019-03-25T01:10:49.919Z,25.03
2019-03-25T01:13:18.703Z,23.43
2019-03-25T01:15:47.397Z,24.33
2019-03-25T01:18:17.298Z,19.60
2019-03-25T01:20:50.712Z,20.70
2019-03-25T01:23:19.422Z,22.63
2019-03-25T01:25:51.772Z,19.07
2019-03-25T01:28:20.502Z,18.70
2019-03-25T01:30:49.208Z,19.77
2019-03-25T01:33:17.938Z,19.67
2019-03-25T01:35:46.665Z,20.73
2019-03-25T01:38:15.415Z,24.80
2019-03-25T01:40:44.133Z,18.67
2019-03-25T01:43:12.836Z,20.87
2019-03-25T01:45:41.546Z,19.23
2019-03-25T01:48:10.254Z,20.10
2019-03-25T01:50:39.020Z,19.10
2019-03-25T01:53:07.741Z,22.10
2019-03-25T01:55:36.454Z,18.63
2019-03-25T01:58:05.205Z,24.67
2019-03-25T02:00:33.916Z,22.00
2019-03-25T02:03:02.635Z,20.40
2019-03-25T02:05:31.385Z,20.50
2019-03-25T02:08:00.097Z,20.47
2019-03-25T02:10:28.800Z,20.17
2019-03-25T02:12:57.557Z,24.57
2019-03-25T02:15:26.259Z,24.97
2019-03-25T02:17:54.968Z,19.50
2019-03-25T02:20:26.665Z,21.07
2019-03-25T02:22:54.320Z,21.57
2019-03-25T02:25:25.726Z,19.93
2019-03-25T02:27:53.869Z,23.40
2019-03-25T02:30:22.579Z,24.57
2019-03-25T02:32:51.292Z,28.63
2019-03-25T02:35:20.032Z,45.87
2019-03-25T02:37:48.738Z,42.47
2019-03-25T02:40:17.445Z,31.00
2019-03-25T02:42:52.084Z,25.23
2019-03-25T02:45:20.796Z,21.13
2019-03-25T02:47:49.497Z,22.67
2019-03-25T02:50:18.258Z,23.10
2019-03-25T02:52:46.971Z,20.93
2019-03-25T02:55:15.680Z,18.30
2019-03-25T02:57:44.444Z,20.03
2019-03-25T03:00:15.978Z,22.07
2019-03-25T03:02:44.685Z,20.93
2019-03-25T03:05:13.462Z,20.27
2019-03-25T03:07:42.174Z,21.23
2019-03-25T03:10:11.482Z,21.57
2019-03-25T03:12:40.246Z,24.33
2019-03-25T03:15:08.954Z,23.30
2019-03-25T03:17:37.662Z,18.00
2019-03-25T03:20:08.013Z,18.83
2019-03-25T03:22:36.721Z,21.37
2019-03-25T03:25:05.725Z,24.20
2019-03-25T03:27:34.470Z,22.37
2019-03-25T03:30:03.203Z,23.13
2019-03-25T03:32:31.914Z,22.73
2019-03-25T03:35:01.109Z,23.03
2019-03-25T03:37:30.023Z,19.60
2019-03-25T03:39:58.738Z,22.97
2019-03-25T03:42:27.494Z,19.37
2019-03-25T03:44:56.192Z,21.33
2019-03-25T03:47:24.909Z,26.27
2019-03-25T03:49:53.665Z,25.20
2019-03-25T03:52:22.378Z,28.60
2019-03-25T03:54:55.021Z,26.13
2019-03-25T03:57:24.898Z,23.40
2019-03-25T03:59:53.623Z,22.33
2019-03-25T04:02:22.320Z,23.20
2019-03-25T04:04:52.081Z,21.63
2019-03-25T04:07:20.783Z,22.13
2019-03-25T04:09:49.491Z,24.60
2019-03-25T04:12:18.342Z,20.77
2019-03-25T04:14:47.121Z,22.30
2019-03-25T04:17:15.835Z,23.97
2019-03-25T04:19:44.610Z,20.73
2019-03-25T04:22:13.306Z,34.07
2019-03-25T04:24:42.048Z,33.10
2019-03-25T04:27:10.799Z,38.47
2019-03-25T04:29:39.514Z,35.17
2019-03-25T04:32:08.231Z,33.67
2019-03-25T04:34:37.029Z,49.37
2019-03-25T04:37:05.770Z,64.33
2019-03-25T04:39:34.492Z,68.00
2019-03-25T04:42:04.246Z,66.60
2019-03-25T04:44:33.394Z,53.03
2019-03-25T04:47:02.124Z,47.37
2019-03-25T04:49:30.870Z,56.57
2019-03-25T04:51:59.577Z,48.63
2019-03-25T04:54:28.314Z,48.73
2019-03-25T04:56:57.402Z,47.10
2019-03-25T04:59:26.134Z,36.53
2019-03-25T05:01:54.973Z,30.37
2019-03-25T05:04:23.684Z,41.10
2019-03-25T05:06:52.397Z,38.27
2019-03-25T05:09:21.110Z,45.37
2019-03-25T05:11:55.962Z,52.77
2019-03-25T05:14:24.672Z,43.63
2019-03-25T05:16:53.375Z,42.73
2019-03-25T05:19:22.143Z,44.30
2019-03-25T05:21:50.840Z,50.67
2019-03-25T05:24:19.558Z,50.87
2019-03-25T05:26:54.833Z,46.30
2019-03-25T05:29:23.554Z,42.97
2019-03-25T05:31:52.266Z,50.30
2019-03-25T05:34:21.017Z,50.23
2019-03-25T05:36:49.725Z,46.30
2019-03-25T05:39:18.437Z,35.70
2019-03-25T05:41:56.018Z,46.37
2019-03-25T05:44:24.730Z,34.27
2019-03-25T05:46:53.454Z,38.30
2019-03-25T05:49:22.214Z,34.87
2019-03-25T05:51:50.940Z,43.30
2019-03-25T05:54:19.658Z,43.53
2019-03-25T05:57:02.774Z,42.33
2019-03-25T05:59:28.936Z,48.67
2019-03-25T06:01:59.159Z,51.37
2019-03-25T06:04:27.928Z,54.57
2019-03-25T06:06:56.641Z,56.77
2019-03-25T06:09:25.352Z,49.53
2019-03-25T06:11:54.611Z,34.97
2019-03-25T06:14:23.316Z,36.63
2019-03-25T06:16:52.028Z,31.47
2019-03-25T06:19:20.789Z,33.00
2019-03-25T06:21:49.497Z,38.07
2019-03-25T06:24:18.208Z,32.13
2019-03-25T06:26:52.161Z,29.47
2019-03-25T06:29:20.868Z,34.70
2019-03-25T06:31:49.573Z,37.93
2019-03-25T06:34:18.337Z,31.23
2019-03-25T06:36:47.030Z,31.83
2019-03-25T06:39:15.745Z,33.50
2019-03-25T06:41:44.504Z,28.33
2019-03-25T06:44:13.204Z,30.27
2019-03-25T06:46:41.913Z,29.33
2019-03-25T06:49:10.667Z,26.77
2019-03-25T06:51:39.370Z,25.90
2019-03-25T06:54:08.075Z,24.63
2019-03-25T06:56:36.819Z,29.93
2019-03-25T06:59:05.522Z,27.37
2019-03-25T07:01:34.233Z,26.87
2019-03-25T07:04:02.984Z,26.23
2019-03-25T07:06:31.697Z,27.17
2019-03-25T07:09:00.400Z,28.07
2019-03-25T07:11:29.150Z,26.03
2019-03-25T07:13:58.065Z,26.87
2019-03-25T07:16:26.773Z,27.63
2019-03-25T07:18:55.520Z,23.90
2019-03-25T07:21:24.229Z,26.73
2019-03-25T07:23:52.939Z,24.73
2019-03-25T07:26:21.657Z,25.30
2019-03-25T07:28:50.368Z,26.27
2019-03-25T07:31:19.122Z,28.43
2019-03-25T07:33:47.828Z,28.50
2019-03-25T07:36:16.543Z,28.13
2019-03-25T07:38:53.571Z,27.70
2019-03-25T07:41:22.281Z,27.73
2019-03-25T07:43:54.329Z,25.37
2019-03-25T07:46:23.046Z,25.97
2019-03-25T07:48:53.725Z,26.67
2019-03-25T07:51:22.439Z,25.27
2019-03-25T07:53:51.202Z,25.63
2019-03-25T07:56:19.927Z,25.13
2019-03-25T07:58:48.634Z,27.20
2019-03-25T08:01:17.348Z,27.30
2019-03-25T08:03:53.635Z,26.97
2019-03-25T08:06:22.324Z,28.47
2019-03-25T08:08:51.058Z,32.93
2019-03-25T08:11:19.757Z,35.07
2019-03-25T08:13:48.498Z,31.30
2019-03-25T08:16:17.239Z,33.10
2019-03-25T08:18:45.945Z,35.20
2019-03-25T08:21:14.665Z,33.97
2019-03-25T08:23:43.379Z,32.13
2019-03-25T08:26:12.098Z,34.77
2019-03-25T08:28:40.845Z,30.07
2019-03-25T08:31:09.566Z,33.80
2019-03-25T08:33:38.285Z,34.60
2019-03-25T08:36:07.002Z,31.03
2019-03-25T08:38:35.715Z,25.57
2019-03-25T08:41:04.459Z,30.70
2019-03-25T08:43:33.181Z,31.67
2019-03-25T08:46:01.889Z,28.67
2019-03-25T08:48:30.614Z,26.97
2019-03-25T08:50:59.330Z,26.73
2019-03-25T08:53:28.090Z,25.10
2019-03-25T08:55:56.810Z,28.40
2019-03-25T08:58:25.519Z,24.97
2019-03-25T09:00:54.234Z,29.27
2019-03-25T09:03:22.942Z,27.00
2019-03-25T09:05:52.242Z,25.20
2019-03-25T09:08:20.952Z,23.13
2019-03-25T09:10:49.671Z,22.80
2019-03-25T09:13:18.455Z,28.87
2019-03-25T09:15:47.162Z,23.50
2019-03-25T09:18:15.892Z,25.67
2019-03-25T09:20:44.686Z,27.27
2019-03-25T09:23:13.451Z,22.87
2019-03-25T09:25:42.134Z,28.57
2019-03-25T09:28:10.914Z,25.57
2019-03-25T09:30:54.711Z,27.23
2019-03-25T09:33:23.766Z,25.37
2019-03-25T09:35:52.599Z,26.10
2019-03-25T09:38:21.308Z,23.20
2019-03-25T09:40:52.967Z,20.67
2019-03-25T09:43:21.669Z,17.80
2019-03-25T09:45:50.385Z,24.70
2019-03-25T09:48:19.146Z,20.97
2019-03-25T09:50:48.169Z,22.93
2019-03-25T09:53:16.874Z,21.33
2019-03-25T09:55:55.516Z,27.10
2019-03-25T09:58:35.393Z,21.87
2019-03-25T10:00:54.657Z,24.07
2019-03-25T10:03:23.377Z,23.23
2019-03-25T10:05:52.091Z,23.27
2019-03-25T10:08:20.857Z,24.40
2019-03-25T10:10:49.573Z,24.83
2019-03-25T10:13:18.290Z,21.47
2019-03-25T10:15:52.987Z,30.30
2019-03-25T10:18:21.701Z,21.03
2019-03-25T10:20:53.131Z,24.33
2019-03-25T10:23:21.848Z,26.30
2019-03-25T10:25:50.572Z,21.40
2019-03-25T10:28:19.334Z,28.77
2019-03-25T10:30:48.158Z,21.60
2019-03-25T10:33:16.875Z,22.87
2019-03-25T10:35:52.292Z,24.50
2019-03-25T10:38:21.711Z,20.87
2019-03-25T10:40:50.415Z,23.27
2019-03-25T10:43:19.168Z,27.73
2019-03-25T10:45:47.877Z,24.70
2019-03-25T10:48:16.592Z,23.47
2019-03-25T10:50:51.181Z,20.50
2019-03-25T10:53:19.886Z,29.23
2019-03-25T10:55:48.605Z,25.87
2019-03-25T10:58:17.374Z,27.73
2019-03-25T11:00:46.098Z,21.97
2019-03-25T11:03:14.813Z,21.03
2019-03-25T11:05:43.613Z,23.60
2019-03-25T11:08:12.289Z,27.13
2019-03-25T11:10:41.020Z,22.30
2019-03-25T11:13:09.743Z,25.93
2019-03-25T11:15:38.454Z,26.47
2019-03-25T11:18:07.214Z,27.20
2019-03-25T11:20:35.933Z,27.07
2019-03-25T11:23:04.640Z,32.80
2019-03-25T11:25:33.357Z,27.33
2019-03-25T11:28:02.081Z,27.23
2019-03-25T11:30:54.632Z,27.80
2019-03-25T11:33:23.437Z,26.70
2019-03-25T11:35:52.243Z,27.73
2019-03-25T11:38:20.993Z,27.40
2019-03-25T11:40:49.803Z,24.23
2019-03-25T11:43:18.530Z,26.47
2019-03-25T11:45:52.404Z,24.30
2019-03-25T11:48:21.131Z,26.20
2019-03-25T11:50:53.734Z,24.00
2019-03-25T11:53:22.458Z,25.47
2019-03-25T11:55:51.179Z,21.73
2019-03-25T11:58:19.901Z,33.37
2019-03-25T12:00:56.145Z,26.83
2019-03-25T12:03:24.907Z,25.70
2019-03-25T12:05:54.679Z,28.73
2019-03-25T12:08:23.403Z,23.67
2019-03-25T12:10:54.581Z,23.60
2019-03-25T12:13:23.303Z,22.20
2019-03-25T12:15:53.801Z,22.07
2019-03-25T12:18:22.522Z,23.57
2019-03-25T12:20:51.232Z,25.80
2019-03-25T12:23:26.399Z,24.60
2019-03-25T12:25:50.450Z,17.93
2019-03-25T12:28:20.695Z,22.37
2019-03-25T12:30:53.906Z,24.90
2019-03-25T12:33:22.613Z,23.20
2019-03-25T12:35:51.329Z,28.63
2019-03-25T12:38:20.050Z,27.13
2019-03-25T12:40:48.761Z,23.33
2019-03-25T12:43:17.534Z,22.70
2019-03-25T12:45:46.246Z,26.43
2019-03-25T12:48:14.958Z,20.80
2019-03-25T12:50:43.759Z,24.97
2019-03-25T12:53:12.467Z,23.27
2019-03-25T12:55:41.191Z,20.07
2019-03-25T12:58:09.942Z,18.90
2019-03-25T13:00:43.473Z,22.87
2019-03-25T13:03:12.188Z,18.10
2019-03-25T13:05:40.941Z,17.07
2019-03-25T13:08:09.752Z,18.67
2019-03-25T13:10:38.472Z,17.47
2019-03-25T13:13:07.288Z,19.40
2019-03-25T13:15:36.006Z,19.57
2019-03-25T13:18:04.874Z,19.20
2019-03-25T13:20:33.578Z,24.30
2019-03-25T13:23:02.320Z,19.97
2019-03-25T13:25:31.036Z,19.33
2019-03-25T13:27:59.790Z,15.60
2019-03-25T13:30:28.544Z,18.97
2019-03-25T13:32:57.264Z,18.50
2019-03-25T13:35:25.981Z,22.27
2019-03-25T13:37:54.742Z,18.07
2019-03-25T13:40:23.465Z,18.50
2019-03-25T13:42:52.177Z,16.47
2019-03-25T13:45:20.930Z,17.50
2019-03-25T13:47:49.647Z,16.07
2019-03-25T13:50:20.209Z,15.77
2019-03-25T13:52:53.738Z,16.10
2019-03-25T13:55:22.460Z,18.40
2019-03-25T13:57:55.745Z,16.00
2019-03-25T14:00:35.921Z,14.97
2019-03-25T14:03:04.693Z,14.30
2019-03-25T14:05:33.456Z,14.77
2019-03-25T14:08:02.174Z,16.10
2019-03-25T14:10:30.896Z,16.90
2019-03-25T14:12:59.606Z,16.00
2019-03-25T14:15:28.358Z,15.80
2019-03-25T14:17:57.078Z,32.67
2019-03-25T14:20:25.812Z,24.30
2019-03-25T14:22:54.515Z,16.27
2019-03-25T14:25:23.233Z,18.63
2019-03-25T14:27:54.072Z,16.63
2019-03-25T14:30:22.900Z,33.47
2019-03-25T14:32:51.595Z,23.50
2019-03-25T14:35:20.365Z,15.87
2019-03-25T14:37:49.075Z,30.87
2019-03-25T14:40:17.790Z,17.83
2019-03-25T14:42:54.486Z,15.40
2019-03-25T14:45:26.655Z,22.27
2019-03-25T14:47:53.634Z,14.47
2019-03-25T14:50:22.410Z,21.93
2019-03-25T14:52:51.129Z,15.43
2019-03-25T14:55:19.843Z,16.40
2019-03-25T14:57:55.237Z,18.13
2019-03-25T15:00:25.543Z,23.60
2019-03-25T15:02:54.553Z,15.37
2019-03-25T15:05:23.319Z,13.67
2019-03-25T15:07:53.584Z,18.83
2019-03-25T15:10:22.287Z,13.37
2019-03-25T15:12:52.614Z,17.03
2019-03-25T15:15:21.318Z,16.57
2019-03-25T15:17:50.033Z,15.37
2019-03-25T15:20:18.814Z,12.57
2019-03-25T15:22:47.519Z,13.03
2019-03-25T15:25:16.221Z,19.07
2019-03-25T15:27:44.974Z,14.27
2019-03-25T15:30:14.188Z,15.17
2019-03-25T15:32:43.302Z,16.33
2019-03-25T15:35:12.659Z,20.13
2019-03-25T15:37:41.365Z,20.33
2019-03-25T15:40:11.926Z,16.90
2019-03-25T15:42:40.719Z,18.93
2019-03-25T15:45:10.537Z,16.80
2019-03-25T15:47:40.001Z,21.33
2019-03-25T15:50:10.391Z,22.57
2019-03-25T15:52:39.917Z,20.90
2019-03-25T15:55:09.238Z,18.50
2019-03-25T15:57:39.731Z,24.60
2019-03-25T16:00:14.483Z,16.57
2019-03-25T16:02:43.236Z,19.40
2019-03-25T16:05:12.065Z,17.17
2019-03-25T16:07:40.783Z,18.70
2019-03-25T16:10:09.639Z,18.73
2019-03-25T16:12:38.356Z,15.83
2019-03-25T16:15:07.678Z,15.60
2019-03-25T16:17:38.228Z,15.37
2019-03-25T16:20:10.668Z,16.30
2019-03-25T16:22:39.383Z,21.50
2019-03-25T16:25:08.753Z,24.43
2019-03-25T16:27:37.464Z,31.17
2019-03-25T16:30:08.078Z,48.57
2019-03-25T16:32:36.829Z,60.03
2019-03-25T16:35:06.757Z,38.23
2019-03-25T16:37:35.465Z,35.50
2019-03-25T16:40:05.744Z,49.20
2019-03-25T16:42:34.462Z,37.27
2019-03-25T16:45:03.170Z,45.20
2019-03-25T16:47:31.941Z,48.47
2019-03-25T16:50:00.666Z,34.50
2019-03-25T16:52:29.371Z,35.07
2019-03-25T16:54:58.143Z,30.40
2019-03-25T16:57:26.859Z,26.00
2019-03-25T16:59:57.111Z,29.83
2019-03-25T17:02:25.829Z,31.40
2019-03-25T17:04:54.551Z,32.07
2019-03-25T17:07:23.307Z,42.10
2019-03-25T17:09:58.207Z,35.80
2019-03-25T17:12:26.930Z,31.80
2019-03-25T17:14:55.649Z,32.03
2019-03-25T17:17:24.407Z,58.83
2019-03-25T17:19:53.331Z,94.00
2019-03-25T17:22:22.051Z,180.23
2019-03-25T17:24:50.769Z,46.27
2019-03-25T17:27:19.534Z,51.27
2019-03-25T17:29:48.248Z,58.20
2019-03-25T17:32:16.978Z,49.03
2019-03-25T17:34:53.386Z,23.43
2019-03-25T17:37:22.102Z,25.10
2019-03-25T17:39:53.338Z,33.93
2019-03-25T17:42:22.061Z,40.00
2019-03-25T17:44:50.774Z,49.00
2019-03-25T17:47:19.530Z,46.37
2019-03-25T17:49:48.251Z,46.37
2019-03-25T17:52:16.958Z,45.23
2019-03-25T17:54:53.395Z,47.33
2019-03-25T17:57:22.142Z,38.77
2019-03-25T17:59:57.793Z,54.63
2019-03-25T18:02:26.514Z,35.33
2019-03-25T18:04:55.235Z,63.63
2019-03-25T18:07:23.967Z,51.20
2019-03-25T18:09:55.539Z,74.67
2019-03-25T18:12:24.291Z,40.97
2019-03-25T18:14:53.014Z,51.67
2019-03-25T18:17:21.732Z,53.87
2019-03-25T18:19:53.392Z,39.73
2019-03-25T18:22:22.106Z,39.97
2019-03-25T18:24:50.818Z,58.50
2019-03-25T18:27:19.537Z,38.67
2019-03-25T18:29:54.312Z,31.07
2019-03-25T18:32:23.062Z,32.97
2019-03-25T18:34:51.769Z,41.43
2019-03-25T18:37:20.476Z,53.00
2019-03-25T18:39:55.404Z,58.57
2019-03-25T18:42:24.123Z,90.13
2019-03-25T18:44:52.843Z,100.87
2019-03-25T18:47:21.563Z,59.80
2019-03-25T18:49:50.276Z,69.30
2019-03-25T18:52:19.048Z,60.73
2019-03-25T18:54:47.764Z,43.60
2019-03-25T18:57:16.472Z,43.37
2019-03-25T18:59:45.255Z,62.10
2019-03-25T19:02:13.979Z,49.87
2019-03-25T19:04:42.978Z,34.70
2019-03-25T19:07:11.755Z,37.37
2019-03-25T19:09:40.481Z,46.97
2019-03-25T19:12:09.183Z,44.53
2019-03-25T19:14:37.974Z,39.60
2019-03-25T19:17:06.693Z,58.07
2019-03-25T19:19:35.414Z,68.10
2019-03-25T19:22:05.334Z,46.53
2019-03-25T19:24:34.344Z,33.10
2019-03-25T19:27:03.048Z,32.33
2019-03-25T19:29:31.810Z,32.40
2019-03-25T19:32:06.624Z,33.43
2019-03-25T19:34:30.991Z,44.37
2019-03-25T19:36:59.772Z,42.10
2019-03-25T19:39:28.504Z,49.83
2019-03-25T19:41:57.244Z,41.60
2019-03-25T19:44:25.950Z,37.27
2019-03-25T19:46:54.781Z,31.73
2019-03-25T19:49:23.490Z,29.23
2019-03-25T19:51:56.865Z,25.27
2019-03-25T19:54:25.584Z,27.00
2019-03-25T19:56:54.303Z,33.93
2019-03-25T19:59:23.061Z,51.40
2019-03-25T20:01:57.923Z,41.80
2019-03-25T20:04:26.648Z,39.00
2019-03-25T20:06:57.603Z,30.87
2019-03-25T20:09:26.323Z,31.47
2019-03-25T20:11:57.997Z,34.57
2019-03-25T20:14:26.757Z,29.50
2019-03-25T20:16:55.532Z,27.70
2019-03-25T20:19:24.296Z,26.00
2019-03-25T20:21:55.571Z,21.33
2019-03-25T20:24:24.330Z,26.03
2019-03-25T20:26:53.116Z,37.27
2019-03-25T20:29:21.896Z,27.67
2019-03-25T20:31:50.674Z,27.20
2019-03-25T20:34:19.472Z,28.17
2019-03-25T20:36:56.262Z,27.03
2019-03-25T20:39:25.004Z,29.87
2019-03-25T20:41:53.894Z,23.23
2019-03-25T20:44:22.659Z,19.93
2019-03-25T20:46:51.408Z,22.50
2019-03-25T20:49:20.156Z,21.77
2019-03-25T20:51:56.257Z,19.63
2019-03-25T20:54:25.006Z,18.00
2019-03-25T20:56:58.332Z,17.13
2019-03-25T20:59:27.099Z,22.60
2019-03-25T21:01:55.818Z,18.17
2019-03-25T21:04:24.558Z,19.37
2019-03-25T21:06:54.605Z,20.07
2019-03-25T21:09:23.741Z,16.70
2019-03-25T21:11:52.584Z,24.90
2019-03-25T21:14:21.364Z,30.93
2019-03-25T21:16:50.066Z,37.23
2019-03-25T21:19:18.840Z,30.00
2019-03-25T21:21:47.582Z,25.03
2019-03-25T21:24:16.265Z,28.23
2019-03-25T21:26:45.068Z,19.33
2019-03-25T21:29:13.799Z,16.23
2019-03-25T21:31:42.545Z,17.83
2019-03-25T21:34:11.267Z,16.23
2019-03-25T21:36:40.095Z,17.50
2019-03-25T21:39:08.776Z,16.50
2019-03-25T21:41:37.561Z,24.50
2019-03-25T21:44:06.318Z,21.93
2019-03-25T21:46:35.052Z,20.03
2019-03-25T21:49:03.773Z,21.57
2019-03-25T21:51:32.504Z,24.60
2019-03-25T21:54:01.394Z,25.70
2019-03-25T21:56:30.101Z,23.17
2019-03-25T21:59:00.425Z,17.77
2019-03-25T22:01:29.341Z,16.17
2019-03-25T22:03:58.065Z,18.50
2019-03-25T22:06:26.775Z,19.20
2019-03-25T22:08:55.492Z,27.20
2019-03-25T22:11:24.212Z,33.40
2019-03-25T22:13:55.227Z,37.33
2019-03-25T22:16:23.974Z,33.53
2019-03-25T22:18:52.690Z,29.07
2019-03-25T22:21:21.398Z,21.73
2019-03-25T22:23:54.307Z,16.17
2019-03-25T22:26:23.012Z,15.90
2019-03-25T22:28:55.060Z,24.43
2019-03-25T22:31:23.768Z,26.17
2019-03-25T22:33:52.472Z,17.97
2019-03-25T22:36:21.215Z,23.90
2019-03-25T22:38:49.923Z,20.47
2019-03-25T22:41:18.669Z,14.83
2019-03-25T22:43:47.377Z,17.60
2019-03-25T22:46:16.082Z,15.83
2019-03-25T22:48:44.834Z,16.33
2019-03-25T22:51:13.535Z,16.87
2019-03-25T22:53:42.240Z,19.30
2019-03-25T22:56:11.036Z,21.10
2019-03-25T22:58:39.742Z,22.10
2019-03-25T23:01:08.496Z,38.87
2019-03-25T23:03:39.412Z,44.37
2019-03-25T23:06:07.645Z,21.60
2019-03-25T23:08:36.400Z,16.63
2019-03-25T23:11:05.214Z,17.03
2019-03-25T23:13:33.922Z,13.73
2019-03-25T23:16:02.665Z,14.97
2019-03-25T23:18:31.371Z,16.90
2019-03-25T23:21:00.157Z,34.17
2019-03-25T23:23:28.929Z,25.30
2019-03-25T23:25:57.644Z,27.97
2019-03-25T23:28:26.355Z,25.97
2019-03-25T23:30:55.109Z,20.53
2019-03-25T23:33:23.813Z,18.57
2019-03-25T23:35:52.620Z,21.47
2019-03-25T23:38:21.366Z,18.67
2019-03-25T23:40:50.080Z,15.57
2019-03-25T23:43:18.789Z,16.40
2019-03-25T23:45:53.818Z,15.50
2019-03-25T23:48:22.525Z,14.73
2019-03-25T23:50:51.232Z,14.63
2019-03-25T23:53:19.989Z,16.87
2019-03-25T23:55:48.708Z,13.60
2019-03-25T23:58:17.417Z,17.07
